Maersk Lirquen — VRKB8 — position and weather

sailwx.info

Track history (hours):
 
Tides and Currents Weather Stations Pressure Air Temp Water Temp Dewpoint Dewpoint Depression Visibility Wind Speed Wind Dir Waves Ship Positions

Maersk Lirquen

Last reported at 2017-Feb-15 13:28 UTC. Time now 2017-Feb-25 13:50 UTC.
Position N 22°20' E 114°07'.
Warning: this ship's position is 10 days out of date.

Length 300 m; draft 12.8 m.

Type: Ship (hazmat cat A). MMSI: 477423500.

Date/timePositionNaut miles runAvg speedWind from/ knotsBaromVisibWave heightAir tempDewpointWater temp
2017-Feb-15 13:28N 22°20' E 114°07'  
2017-Feb-11 15:30N 01°15' E 104°05'1011.2
2017-Feb-11 14:33N 01°13' E 103°55'7 7.2
2017-Feb-11 13:33N 01°13' E 103°48'4 4.0
2017-Feb-11 12:33N 01°16' E 103°46'0 0.0
2017-Feb-11 11:31N 01°16' E 103°46'0 0.0
2017-Feb-11 10:31N 01°16' E 103°46'0 0.0
2017-Feb-11 09:31N 01°16' E 103°46'0 0.0
2017-Feb-11 08:31N 01°16' E 103°46'0 0.0
2017-Feb-11 07:25N 01°16' E 103°46'0 0.0
2017-Feb-11 06:31N 01°16' E 103°46'0 0.0
2017-Feb-11 05:31N 01°16' E 103°46'0 0.0
2017-Feb-11 04:31N 01°16' E 103°46'0 0.0
2017-Feb-11 03:31N 01°16' E 103°46'0 0.0
2017-Feb-11 02:31N 01°16' E 103°46'0 0.0
2017-Feb-11 01:31N 01°16' E 103°46'0 0.0
2017-Feb-11 00:31N 01°16' E 103°46'0 0.0
2017-Feb-10 23:31N 01°16' E 103°46'0 0.0
2017-Feb-10 22:31N 01°16' E 103°46'0 0.0
2017-Feb-10 21:31N 01°16' E 103°46'0 0.0
2017-Feb-10 20:31N 01°16' E 103°46'0 0.0
2017-Feb-10 19:31N 01°16' E 103°46'0 0.0
2017-Feb-10 18:31N 01°16' E 103°46'0 0.0
2017-Feb-10 17:31N 01°16' E 103°46'0 0.0
2017-Feb-10 16:28N 01°16' E 103°46'0 0.0
2017-Feb-10 15:28N 01°16' E 103°46'0 0.3
2017-Feb-10 14:33N 01°16' E 103°47'6 6.3
2017-Feb-10 13:33N 01°13' E 103°41'9 9.0
2017-Feb-10 12:33N 01°10' E 103°32'5 4.6
2017-Feb-10 11:33N 01°10' E 103°28'7 7.2
2017-Feb-10 10:33N 01°14' E 103°21'4314.2
2017-Feb-10 07:33N 01°39' E 102°47'1813.9
2017-Feb-10 06:16N 01°47' E 102°31'1014.0
2017-Feb-10 05:33N 01°51' E 102°22'  
2017-Feb-07 03:00S 03°30' E 082°30'6834.2 340 / 71012.410.8 29.023.232.0
2017-Feb-07 01:00S 04°12' E 081°36'6817.1 270 / 121010.6 28.022.928.0
2017-Feb-06 21:00S 04°54' E 080°42'10220.4 260 / 81010.310.8 28.023.734.0
2017-Feb-06 16:00S 06°00' E 079°24'9022.4 230 / 91012.310.8 29.022.432.0
2017-Feb-06 12:00S 06°54' E 078°12'16620.7 190 / 81009.227.0 32.821.729.0
2017-Feb-06 04:00S 08°36' E 076°00'8127.0 210 / 81012.310.8 29.021.632.0
2017-Feb-06 01:00S 09°24' E 074°54'15717.4 170 / 71011.2 27.022.629.0
2017-Feb-05 16:00S 11°00' E 072°48'   200 / 81011.810.8 28.521.932.0
Track history (hours):
 
Tides and Currents Weather Stations Pressure Air Temp Water Temp Dewpoint Dewpoint Depression Visibility Wind Speed Wind Dir Waves Ship Positions

Maersk Lirquen

Last reported at 2017-Feb-15 13:28 UTC. Time now 2017-Feb-25 13:50 UTC.
Position N 22°20' E 114°07'.
Warning: this ship's position is 10 days out of date.

Length 300 m; draft 12.8 m.

Type: Ship (hazmat cat A). MMSI: 477423500.

Date/timePositionNaut miles runAvg speedWind from/ knotsBaromVisibWave heightAir tempDewpointWater temp
2017-Feb-15 13:28N 22°20' E 114°07'  
2017-Feb-11 15:30N 01°15' E 104°05'1011.2
2017-Feb-11 14:33N 01°13' E 103°55'7 7.2
2017-Feb-11 13:33N 01°13' E 103°48'4 4.0
2017-Feb-11 12:33N 01°16' E 103°46'0 0.0
2017-Feb-11 11:31N 01°16' E 103°46'0 0.0
2017-Feb-11 10:31N 01°16' E 103°46'0 0.0
2017-Feb-11 09:31N 01°16' E 103°46'0 0.0
2017-Feb-11 08:31N 01°16' E 103°46'0 0.0
2017-Feb-11 07:25N 01°16' E 103°46'0 0.0
2017-Feb-11 06:31N 01°16' E 103°46'0 0.0
2017-Feb-11 05:31N 01°16' E 103°46'0 0.0
2017-Feb-11 04:31N 01°16' E 103°46'0 0.0
2017-Feb-11 03:31N 01°16' E 103°46'0 0.0
2017-Feb-11 02:31N 01°16' E 103°46'0 0.0
2017-Feb-11 01:31N 01°16' E 103°46'0 0.0
2017-Feb-11 00:31N 01°16' E 103°46'0 0.0
2017-Feb-10 23:31N 01°16' E 103°46'0 0.0
2017-Feb-10 22:31N 01°16' E 103°46'0 0.0
2017-Feb-10 21:31N 01°16' E 103°46'0 0.0
2017-Feb-10 20:31N 01°16' E 103°46'0 0.0
2017-Feb-10 19:31N 01°16' E 103°46'0 0.0
2017-Feb-10 18:31N 01°16' E 103°46'0 0.0
2017-Feb-10 17:31N 01°16' E 103°46'0 0.0
2017-Feb-10 16:28N 01°16' E 103°46'0 0.0
2017-Feb-10 15:28N 01°16' E 103°46'0 0.3
2017-Feb-10 14:33N 01°16' E 103°47'6 6.3
2017-Feb-10 13:33N 01°13' E 103°41'9 9.0
2017-Feb-10 12:33N 01°10' E 103°32'5 4.6
2017-Feb-10 11:33N 01°10' E 103°28'7 7.2
2017-Feb-10 10:33N 01°14' E 103°21'4314.2
2017-Feb-10 07:33N 01°39' E 102°47'1813.9
2017-Feb-10 06:16N 01°47' E 102°31'1014.0
2017-Feb-10 05:33N 01°51' E 102°22'  
2017-Feb-07 03:00S 03°30' E 082°30'6834.2 340 / 71012.410.8 29.023.232.0
2017-Feb-07 01:00S 04°12' E 081°36'6817.1 270 / 121010.6 28.022.928.0
2017-Feb-06 21:00S 04°54' E 080°42'10220.4 260 / 81010.310.8 28.023.734.0
2017-Feb-06 16:00S 06°00' E 079°24'9022.4 230 / 91012.310.8 29.022.432.0
2017-Feb-06 12:00S 06°54' E 078°12'16620.7 190 / 81009.227.0 32.821.729.0
2017-Feb-06 04:00S 08°36' E 076°00'8127.0 210 / 81012.310.8 29.021.632.0
2017-Feb-06 01:00S 09°24' E 074°54'15717.4 170 / 71011.2 27.022.629.0
2017-Feb-05 16:00S 11°00' E 072°48'   200 / 81011.810.8 28.521.932.0

Dump ship's entire track history